Airfield :
LOGIN :

Register | Disclaimer

   EN    FR    IT 

 










Legend :    VFR   Marginal VFR   IFR   Intensive IFR   Very Intensive IFR
Visi :
Ceiling :
>= 8 km
>= 3000ft
5 to 8 km
1000 to 3000 ft
1500m to 5 km
500 to 1000 ft
800 to 1500m
200 to 500 ft
< 800m
< 200 ft
Symbols :   Thunderstorms  Fog  Heavy snow  Heavy precipitations  Wind > 20 kt
SIGMETs :     Misc.  Thunderstorms  Icing  Turbulence  Mountain Waves  Volcanic Ashes






- Airport Elevation : 157 ft
- IATA code : LIL


LFQQ - Lille Lesquin

CURRENT METAR :
  • 181600Z AUTO 20007KT 9999 -DZ BKN011 BKN016 BKN027 05/05 Q1022 TEMPO 4000 SHRA BKN013TCU

EXPIRED METARs :
  • 181530Z AUTO 20010KT 6000 -DZ BKN013 BKN019 BKN029 05/04 Q1022 TEMPO 4000 SHRA BKN013TCU
  • 181500Z AUTO 21011KT 9999 SCT009 BKN014 BKN031 06/04 Q1022 TEMPO 4000 SHRA BKN013TCU
  • 181430Z AUTO 22014KT 9999 -RA BKN011 BKN031 BKN039 06/04 Q1022 TEMPO 4000 SHRA BKN013TCU
  • 181400Z AUTO 21011KT 9999 BKN012 BKN040 BKN240 06/04 Q1022 TEMPO 4000 SHRA BKN013TCU
  • 181330Z AUTO 21012KT 9999 -DZ BKN013 BKN023 OVC039 06/04 Q1022 TEMPO 4000 SHRA BKN013TCU

TAF TAF LFQQ
Valid from the 18 at 12:00 until the 19 at 18:00 UTC


181100Z 1812/1918 21013KT 9999 SCT020
TEMPO 1812/1818 4000 SHRA BKN013TCU
BECMG 1822/1824 21017G27KT BKN013 OVC020
TEMPO 1900/1912 3000 RA OVC007
ATIS : +33 3 20 16 19 54



MET'MAP, your aeronautical weather chart ! - Copyright ORBIFLY December 2007 - Disclaimer

ORBIFLY MET'MAP TEAM :

Programming & Development : Alexandra Zaïnal
Concept & original design : Baudouin d'Aumeries
Assistance for programming : Marc-Olivier Méhu
Technical & hardware support : Manuel Goepfert

Contact : metmap@orbifly.com




SOURCES & CREDITS :

   NOAA